WetterOnline ( https://www.wetteronline.de )

Wetter aktuell Sankt Peter-Ording

Aktuelles Wetter: St. Peter-Ording (11m)

6-stündlich | Neueste Meldungen
Ortszeit Temperatur Wetter
Do, 23.05. 2:00 14.4° C leichter Regen
Mi, 22.05. 20:00 14.3° C Regen
Mi, 22.05. 14:00 16.9° C bedeckt
Mi, 22.05. 8:00 14.7° C bedeckt
Mi, 22.05. 2:00 13.8° C bedeckt
Di, 21.05. 20:00 17.8° C wolkig
Di, 21.05. 14:00 21.1° C leicht bewölkt
Di, 21.05. 8:00 13.7° C bedeckt
Ortszeit Temperatur Wetter
Do, 23.05. 5:30 14.3° C leichter Regen
Do, 23.05. 5:20 14.3° C leichter Regen
Do, 23.05. 5:10 14.5° C bedeckt
Do, 23.05. 5:00 14.7° C bedeckt
Do, 23.05. 4:50 14.7° C bedeckt
Do, 23.05. 4:40 14.6° C bedeckt
Do, 23.05. 4:30 14.5° C bedeckt
Do, 23.05. 4:00 14.5° C bedeckt
Do, 23.05. 3:30 14.4° C bedeckt
Do, 23.05. 3:00 14.5° C Regen
Do, 23.05. 2:30 14.5° C Sprühregen
Ortszeit Relative Feuchte Sichtweite
Do, 23.05. 2:00 96% 9 km
Mi, 22.05. 20:00 98% 6 km
Mi, 22.05. 14:00 90% 20 km
Mi, 22.05. 8:00 86% 30 km
Mi, 22.05. 2:00 84% 35 km
Di, 21.05. 20:00 71% 45 km
Di, 21.05. 14:00 64% 65 km
Di, 21.05. 8:00 92% 10 km
Ortszeit Relative Feuchte Sichtweite
Do, 23.05. 5:30 96% 25 km
Do, 23.05. 5:20 96% -
Do, 23.05. 5:10 94% -
Do, 23.05. 5:00 92% 30 km
Do, 23.05. 4:50 92% -
Do, 23.05. 4:40 93% -
Do, 23.05. 4:30 92% 35 km
Do, 23.05. 4:00 93% 27 km
Do, 23.05. 3:30 94% 30 km
Do, 23.05. 3:00 96% 13 km
Do, 23.05. 2:30 96% 13 km
Ortszeit Niederschlagsmenge Niederschlagsart
Do, 23.05. 2:00 6 l/m2 in 6 Std. Regen
Mi, 22.05. 20:00 22 l/m2 in 12 Std. Regen
Mi, 22.05. 14:00 3 l/m2 in 6 Std. Regen
Mi, 22.05. 8:00 0.1 l/m2 in 12 Std. Regen
Mi, 22.05. 2:00 0.0 l/m2 in 6 Std. -
Di, 21.05. 20:00 0.0 l/m2 in 12 Std. -
Di, 21.05. 14:00 0.0 l/m2 in 6 Std. -
Di, 21.05. 8:00 0.0 l/m2 in 12 Std. -
Ortszeit Niederschlagsmenge Niederschlagsart
Do, 23.05. 5:30 <0.05 l/m2 in 30 Min -
Do, 23.05. 5:20 keine Meldung -
Do, 23.05. 5:10 keine Meldung -
Do, 23.05. 5:00 0.0 l/m2 in 1 Std. Regen
Do, 23.05. 4:50 keine Meldung -
Do, 23.05. 4:40 keine Meldung -
Do, 23.05. 4:30 0.0 l/m2 in 30 Min -
Do, 23.05. 4:00 <0.05 l/m2 in 1 Std. Regen
Do, 23.05. 3:30 <0.05 l/m2 in 30 Min Schneeregen
Do, 23.05. 3:00 0.1 l/m2 in 1 Std. Regen
Do, 23.05. 2:30 <0.05 l/m2 in 30 Min -
Ortszeit Stärke Spitze Richtung
km/h Bft. km/h Grad Sektor
Do, 23.05. 2:00 18 3 36 310° NW
Mi, 22.05. 20:00 25 4 32 310° NW
Mi, 22.05. 14:00 9 2 44 110° O
Mi, 22.05. 8:00 24 4 52 90° O
Mi, 22.05. 2:00 32 5 50 80° O
Di, 21.05. 20:00 32 5 58 80° O
Di, 21.05. 14:00 29 5 47 80° O
Di, 21.05. 8:00 24 4 37 80° O
Ortszeit Stärke Spitze Richtung
km/h Bft. km/h Grad Sektor
Do, 23.05. 5:30 6 1 11 260° W
Do, 23.05. 5:20 6 1 - 260° W
Do, 23.05. 5:10 7 2 - 270° W
Do, 23.05. 5:00 11 2 14 280° W
Do, 23.05. 4:50 11 2 - 280° W
Do, 23.05. 4:40 9 2 - 290° W
Do, 23.05. 4:30 11 2 14 300° NW
Do, 23.05. 4:00 13 3 19 330° NW
Do, 23.05. 3:30 14 3 18 330° NW
Do, 23.05. 3:00 13 3 22 340° N
Do, 23.05. 2:30 14 3 22 320° NW
Ortszeit Untergrenze Bedeckung Gattung
total tief tief mittel hoch
Do, 23.05. 2:00 210 m 8/8 8/8 - - -
Mi, 22.05. 20:00 150 m 8/8 8/8 - - -
Mi, 22.05. 14:00 420 m 8/8 8/8 - - -
Mi, 22.05. 8:00 1800 m 8/8 8/8 - - -
Mi, 22.05. 2:00 6600 m 8/8 8/8 - - -
Di, 21.05. 20:00 7500 m 8/8 0/8 - - -
Di, 21.05. 14:00 9000 m 3/8 0/8 - - -
Di, 21.05. 8:00 150 m 8/8 8/8 - - -
Ortszeit Bedeckungsgrad in Achtel und Wolkenuntergrenze
Do, 23.05. 5:30 4(1080m) 8(2400m)
Do, 23.05. 5:20 4(1080m) 8(2400m)
Do, 23.05. 5:10 8
Do, 23.05. 5:00 2(630m) 8(2100m)
Do, 23.05. 4:50 2(630m) 8(2100m)
Do, 23.05. 4:40 8
Do, 23.05. 4:30 3(840m) 8(2100m)
Do, 23.05. 4:00 1(870m) 3(1200m) 8(2100m)
Do, 23.05. 3:30 1(660m) 3(1170m) 8(2100m)
Do, 23.05. 3:00 1(810m) 3(1500m) 8(1800m)
Do, 23.05. 2:30 4(750m) 8(1500m)
Ortszeit Luftdruck NN (hPa) Tendenz (hPa in 3 Std.)
Do, 23.05. 2:00 1010 - 0,3
Mi, 22.05. 20:00 1010 + 0,5
Mi, 22.05. 14:00 1008 + 0,9
Mi, 22.05. 8:00 1007 - 0,3
Mi, 22.05. 2:00 1008 - 1,5
Di, 21.05. 20:00 1010 - 0,9
Di, 21.05. 14:00 1012 - 1,2
Di, 21.05. 8:00 1014 0,0
Ortszeit Luftdruck NN (hPa) Tendenz (hPa in 3 Std.)
Do, 23.05. 5:30 1011 + 0,1
Do, 23.05. 5:20 1011 keine Meldung
Do, 23.05. 5:10 1011 keine Meldung
Do, 23.05. 5:00 1011 + 0,1
Do, 23.05. 4:50 1011 keine Meldung
Do, 23.05. 4:40 1011 keine Meldung
Do, 23.05. 4:30 1011 - 0,1
Do, 23.05. 4:00 1011 - 0,1
Do, 23.05. 3:30 1011 + 0,1
Do, 23.05. 3:00 1011 + 0,2
Do, 23.05. 2:30 1011 - 0,1
Ortszeit Schneehöhe (cm)
Do, 23.05. 2:00 0
Mi, 22.05. 20:00 0
Mi, 22.05. 14:00 0
Mi, 22.05. 8:00 0
Mi, 22.05. 2:00 0
Di, 21.05. 20:00 0
Di, 21.05. 14:00 0
Di, 21.05. 8:00 0
Ortszeit Schneehöhe (cm)
Do, 23.05. 5:30 0
Do, 23.05. 5:20 0
Do, 23.05. 5:10 -
Do, 23.05. 5:00 0
Do, 23.05. 4:50 0
Do, 23.05. 4:40 -
Do, 23.05. 4:30 0
Do, 23.05. 4:00 0
Do, 23.05. 3:30 0
Do, 23.05. 3:00 0
Do, 23.05. 2:30 0
Link zu dieser Seite / Seite empfehlen

Das Wetter in ...